GCLA/SPC METAR and TAF weather

Enter ICAO airport designator
Station Type Date Time Source
GCLA METAR 2019/08/19 23:00 UTC NOAA

GCLA 192300Z AUTO 03014KT 9999 BKN022 23/19 Q1020


Station Type Date Time Source
GCLA Decoded METAR 2019/08/19 23:00 UTC NOAA

La Palma / Aeropuerto, Spain (GCLA) 28-37N 017-45W 31M
Aug 19, 2019 - 07:00 PM EDT / 2019.08.19 2300 UTC
Wind: from the NNE (030 degrees) at 16 MPH (14 KT):0
Visibility: greater than 7 mile(s):0
Sky conditions: mostly cloudy
Temperature: 73 F (23 C)
Dew Point: 66 F (19 C)
Relative Humidity: 78%
Pressure (altimeter): 30.12 in. Hg (1020 hPa)
ob: GCLA 192300Z AUTO 03014KT 9999 BKN022 23/19 Q1020
cycle: 23

Station Type Date Time Source
GCLA TAF 2019/08/19 21:27 UTC NOAA

TAF GCLA 192000Z 1921/2021 36011KT 9999 FEW018 TX26/2013Z TN21/2005Z

Example: see airport list